Time;durP1;ratioP1;P1;durP2;ratioP2;P2;SDS_P1;SDS_P2;PMS_P1;PMS_P2;Temp;Humidity;BMP_temperature;BMP_pressure;BME280_temperature;BME280_humidity;BME280_pressure;Samples;Min_cycle;Max_cycle;Signal;HPM_P1;HPM_P2
2023/12/13 00:00:42;;;;;;;3.40;1.80;;;17.50;65.80;;;;;;4914082;29;20169;-83
2023/12/13 00:03:08;;;;;;;2.30;1.77;;;17.50;65.70;;;;;;4917531;29;20186;-84
2023/12/13 00:05:34;;;;;;;3.60;2.13;;;17.60;65.70;;;;;;4918161;29;20214;-83
2023/12/13 00:07:59;;;;;;;2.35;1.92;;;17.50;65.80;;;;;;4945040;29;20177;-83
2023/12/13 00:10:25;;;;;;;3.13;1.90;;;17.50;65.50;;;;;;4921073;29;20157;-84
2023/12/13 00:12:51;;;;;;;3.15;1.80;;;17.50;65.80;;;;;;4951020;29;20741;-83
2023/12/13 00:15:17;;;;;;;4.22;2.13;;;17.50;66.00;;;;;;4936735;29;20205;-83
2023/12/13 00:17:44;;;;;;;2.72;1.70;;;17.50;66.10;;;;;;4937213;29;20193;-83
2023/12/13 00:20:09;;;;;;;3.58;1.90;;;17.50;66.10;;;;;;4941955;28;20215;-83
2023/12/13 00:22:35;;;;;;;2.22;1.85;;;17.50;66.10;;;;;;4936752;29;20586;-82
2023/12/13 00:25:01;;;;;;;3.50;1.65;;;17.40;65.90;;;;;;4949823;28;20165;-83
2023/12/13 00:27:26;;;;;;;3.13;1.98;;;17.40;66.00;;;;;;4955677;28;20652;-83
2023/12/13 00:29:52;;;;;;;3.05;2.10;;;17.50;66.10;;;;;;4972309;28;20542;-83
2023/12/13 00:32:18;;;;;;;2.78;2.00;;;17.40;65.90;;;;;;4968550;28;20158;-83
2023/12/13 00:34:48;;;;;;;3.97;1.92;;;17.50;65.80;;;;;;4936338;29;20174;-83
2023/12/13 00:37:13;;;;;;;3.38;2.00;;;17.50;65.60;;;;;;4903390;29;20190;-83
2023/12/13 00:39:39;;;;;;;4.00;2.10;;;17.50;65.40;;;;;;4920393;29;20158;-83
2023/12/13 00:42:07;;;;;;;2.88;2.20;;;17.40;65.60;;;;;;4920440;29;20197;-84
2023/12/13 00:44:36;;;;;;;5.05;1.90;;;17.50;65.20;;;;;;4919065;29;20197;-83
2023/12/13 00:47:02;;;;;;;2.47;1.95;;;17.50;65.80;;;;;;4904207;29;20648;-83
2023/12/13 00:49:28;;;;;;;3.33;1.77;;;17.50;65.40;;;;;;4920614;29;20165;-83
2023/12/13 00:51:53;;;;;;;2.45;1.80;;;17.40;65.80;;;;;;4923554;28;20232;-82
2023/12/13 00:54:21;;;;;;;3.95;2.13;;;17.40;65.60;;;;;;4938672;29;20684;-84
2023/12/13 00:56:47;;;;;;;2.60;2.00;;;17.40;65.70;;;;;;4888538;29;20182;-83
2023/12/13 00:59:12;;;;;;;3.47;2.20;;;17.40;65.60;;;;;;4921557;29;20201;-83
2023/12/13 01:01:43;;;;;;;4.47;2.05;;;17.50;65.00;;;;;;4939151;29;20150;-83
2023/12/13 01:04:10;;;;;;;2.88;2.00;;;17.50;65.70;;;;;;4905589;29;20178;-84
2023/12/13 01:06:35;;;;;;;4.25;2.17;;;17.50;65.30;;;;;;4908464;28;20197;-83
2023/12/13 01:09:03;;;;;;;2.35;1.77;;;17.40;65.20;;;;;;4935498;29;20224;-83
2023/12/13 01:11:29;;;;;;;2.80;2.08;;;17.40;65.70;;;;;;4899632;29;20186;-84
2023/12/13 01:13:55;;;;;;;3.08;1.90;;;17.40;65.90;;;;;;4937407;29;20173;-84
2023/12/13 01:16:27;;;;;;;2.80;2.00;;;17.40;65.60;;;;;;4929178;29;20224;-84
2023/12/13 01:18:53;;;;;;;2.90;1.80;;;17.40;65.20;;;;;;4941029;28;20240;-83
2023/12/13 01:21:20;;;;;;;3.38;1.80;;;17.40;65.90;;;;;;5324720;23;20242;-83
2023/12/13 01:23:46;;;;;;;2.55;1.75;;;17.40;65.60;;;;;;4888617;29;20194;-83
2023/12/13 01:26:12;;;;;;;2.83;2.00;;;17.40;65.10;;;;;;4905405;29;20176;-83
2023/12/13 01:28:37;;;;;;;2.58;1.90;;;17.40;65.40;;;;;;4920636;29;20178;-84
2023/12/13 01:31:07;;;;;;;4.28;2.00;;;17.40;65.50;;;;;;4905108;29;20717;-83
2023/12/13 01:33:34;;;;;;;2.10;1.70;;;17.40;65.60;;;;;;4921331;29;20253;-84
2023/12/13 01:36:02;;;;;;;4.15;1.90;;;17.40;65.80;;;;;;4888516;29;20237;-83
2023/12/13 01:38:28;;;;;;;3.25;2.10;;;17.30;65.60;;;;;;4921083;29;20368;-83
2023/12/13 01:40:55;;;;;;;2.40;1.80;;;17.30;65.90;;;;;;4921307;29;20692;-83
2023/12/13 01:43:25;;;;;;;3.22;1.73;;;17.40;65.60;;;;;;4920858;29;20246;-83
2023/12/13 01:45:56;;;;;;;4.20;1.83;;;17.30;65.90;;;;;;4872565;29;20193;-84
2023/12/13 01:48:23;;;;;;;2.50;2.00;;;17.30;65.80;;;;;;4889602;29;20248;-82
2023/12/13 01:53:19;;;;;;;3.10;2.00;;;17.40;65.40;;;;;;5282410;23;20656;-83
2023/12/13 01:55:45;;;;;;;1.88;1.67;;;17.40;65.80;;;;;;4920143;29;20190;-83
2023/12/13 01:58:11;;;;;;;2.00;1.80;;;17.30;65.20;;;;;;4937352;29;20197;-83
2023/12/13 02:00:39;;;;;;;2.63;1.73;;;17.40;65.50;;;;;;4952313;29;20530;-83
2023/12/13 02:03:05;;;;;;;4.07;2.00;;;17.30;65.40;;;;;;4883755;29;20817;-83
2023/12/13 02:05:33;;;;;;;2.17;1.95;;;17.40;65.40;;;;;;4917823;29;20234;-83
2023/12/13 02:10:32;;;;;;;2.65;1.75;;;17.30;65.60;;;;;;5039813;23;20240;-83
2023/12/13 02:12:58;;;;;;;2.80;1.98;;;17.30;65.50;;;;;;5136231;23;20238;-83
2023/12/13 02:15:25;;;;;;;3.38;2.10;;;17.30;65.80;;;;;;4903934;29;20211;-84
2023/12/13 02:21:05;;;;;;;2.85;1.80;;;17.30;65.60;;;;;;4981330;23;20319;-85
2023/12/13 02:23:31;;;;;;;2.83;2.10;;;17.30;65.20;;;;;;4957839;28;20614;-83
2023/12/13 02:25:59;;;;;;;2.85;1.60;;;17.30;65.60;;;;;;4957781;28;20232;-84
2023/12/13 02:28:25;;;;;;;1.90;1.55;;;17.30;65.80;;;;;;4956981;28;20223;-83
2023/12/13 02:30:54;;;;;;;2.72;1.80;;;17.20;65.40;;;;;;4957099;28;20611;-83
2023/12/13 02:33:25;;;;;;;2.38;1.92;;;17.30;65.80;;;;;;4941551;28;20199;-83
2023/12/13 02:36:00;;;;;;;3.38;2.10;;;17.30;65.50;;;;;;4941184;28;20203;-83
2023/12/13 02:38:26;;;;;;;3.42;2.10;;;17.30;65.70;;;;;;4957122;28;20202;-83
2023/12/13 02:40:53;;;;;;;3.83;1.80;;;17.30;65.60;;;;;;4940976;28;20169;-83
2023/12/13 02:43:19;;;;;;;3.05;1.85;;;17.30;65.80;;;;;;4938047;28;20654;-84
2023/12/13 02:45:45;;;;;;;2.00;1.80;;;17.30;65.70;;;;;;4941902;28;20169;-83
2023/12/13 02:48:10;;;;;;;2.38;1.88;;;17.30;65.50;;;;;;4940930;28;20175;-84
2023/12/13 02:50:38;;;;;;;2.85;1.80;;;17.30;65.90;;;;;;4941141;28;20180;-83
2023/12/13 02:53:05;;;;;;;2.10;1.88;;;17.30;65.50;;;;;;5164228;23;20319;-83
2023/12/13 02:55:32;;;;;;;3.22;1.90;;;17.30;65.60;;;;;;4936525;29;20637;-83
2023/12/13 02:57:59;;;;;;;2.20;1.63;;;17.30;65.50;;;;;;4919323;29;20198;-83
2023/12/13 03:03:00;;;;;;;3.05;2.10;;;17.30;65.60;;;;;;5291748;23;20255;-83
2023/12/13 03:05:29;;;;;;;4.05;2.03;;;17.30;65.80;;;;;;4937592;29;20211;-83
2023/12/13 03:07:56;;;;;;;2.55;1.92;;;17.20;65.20;;;;;;4886925;29;20704;-83
2023/12/13 03:10:22;;;;;;;3.75;1.70;;;17.20;65.70;;;;;;4936949;23;20236;-83
2023/12/13 03:12:48;;;;;;;3.55;1.73;;;17.20;65.70;;;;;;4922300;29;20161;-84
2023/12/13 03:15:14;;;;;;;2.55;1.90;;;17.20;65.90;;;;;;4932286;28;20177;-84
2023/12/13 03:17:39;;;;;;;3.00;1.90;;;17.20;65.80;;;;;;4928814;29;20659;-83
2023/12/13 03:20:06;;;;;;;2.78;2.10;;;17.20;65.30;;;;;;4920414;29;20269;-83
2023/12/13 03:22:32;;;;;;;2.75;2.10;;;17.20;65.40;;;;;;4921704;29;20197;-84
2023/12/13 03:24:58;;;;;;;2.78;1.70;;;17.20;65.40;;;;;;4953611;29;20158;-83
2023/12/13 03:27:24;;;;;;;4.35;2.10;;;17.20;65.80;;;;;;4920824;29;20173;-84
2023/12/13 03:29:50;;;;;;;3.53;2.15;;;17.20;65.80;;;;;;4912615;29;20595;-83
2023/12/13 03:32:17;;;;;;;3.00;2.00;;;17.20;65.60;;;;;;4937208;29;20236;-83
2023/12/13 03:34:42;;;;;;;2.72;1.95;;;17.20;65.30;;;;;;4937712;29;20184;-84
2023/12/13 03:37:08;;;;;;;3.08;2.28;;;17.20;65.60;;;;;;4920933;29;20534;-83
2023/12/13 03:39:37;;;;;;;3.45;2.25;;;17.20;65.40;;;;;;4920921;29;20185;-83
2023/12/13 03:42:03;;;;;;;3.38;1.90;;;17.20;65.50;;;;;;4889215;29;20546;-83
2023/12/13 03:44:29;;;;;;;2.80;2.22;;;17.20;65.60;;;;;;4937013;29;20158;-83
2023/12/13 03:46:54;;;;;;;2.88;2.10;;;17.20;65.90;;;;;;4922470;29;20154;-83
2023/12/13 03:49:20;;;;;;;3.22;2.13;;;17.10;65.50;;;;;;4928059;29;20534;-83
2023/12/13 03:51:47;;;;;;;2.42;1.80;;;17.20;65.60;;;;;;4921757;29;20546;-83
2023/12/13 03:54:13;;;;;;;2.92;2.10;;;17.20;65.30;;;;;;4922247;29;20192;-83
2023/12/13 03:56:39;;;;;;;3.13;1.77;;;17.20;65.80;;;;;;4905909;29;20190;-84
2023/12/13 04:01:44;;;;;;;2.50;1.80;;;17.20;65.60;;;;;;4933361;29;20221;-83
2023/12/13 04:04:09;;;;;;;2.55;2.00;;;17.10;65.80;;;;;;4899294;29;20586;-83
2023/12/13 04:06:35;;;;;;;3.20;2.28;;;17.10;65.50;;;;;;4883453;29;20496;-84
2023/12/13 04:09:01;;;;;;;3.45;2.10;;;17.20;65.30;;;;;;4902270;29;20679;-83
2023/12/13 04:11:27;;;;;;;3.83;2.05;;;17.20;65.60;;;;;;4898908;29;20171;-83
2023/12/13 04:13:52;;;;;;;3.20;2.30;;;17.20;65.80;;;;;;4884281;29;20689;-84
2023/12/13 04:16:18;;;;;;;2.33;1.90;;;17.10;65.50;;;;;;4893665;29;20545;-83
2023/12/13 04:18:44;;;;;;;2.55;2.25;;;17.20;65.60;;;;;;4934906;29;20555;-84
2023/12/13 04:21:10;;;;;;;2.22;2.00;;;17.10;65.60;;;;;;4926906;29;20174;-84
2023/12/13 04:23:36;;;;;;;2.50;2.00;;;17.10;65.50;;;;;;4934634;29;20158;-83
2023/12/13 04:26:01;;;;;;;2.40;2.10;;;17.10;65.80;;;;;;4918414;29;20173;-83
2023/12/13 04:28:27;;;;;;;3.47;1.95;;;17.10;65.60;;;;;;4921376;29;20163;-83
2023/12/13 04:30:53;;;;;;;4.47;2.28;;;17.10;65.50;;;;;;4935731;29;20245;-82
2023/12/13 04:33:20;;;;;;;2.50;2.00;;;17.10;65.60;;;;;;4921420;29;20305;-83
2023/12/13 04:35:46;;;;;;;2.63;1.90;;;17.00;65.60;;;;;;4906458;29;20169;-83
2023/12/13 04:38:13;;;;;;;3.47;2.17;;;17.10;65.80;;;;;;4920069;29;20190;-83
2023/12/13 04:40:42;;;;;;;4.63;1.90;;;17.10;65.60;;;;;;4899250;29;20544;-83
2023/12/13 04:43:08;;;;;;;3.38;2.17;;;17.10;65.60;;;;;;4889278;29;20692;-83
2023/12/13 04:45:34;;;;;;;2.65;1.90;;;17.10;65.20;;;;;;4905855;29;20166;-83
2023/12/13 04:48:00;;;;;;;3.00;2.20;;;17.10;65.60;;;;;;4929526;29;20237;-84
2023/12/13 04:50:25;;;;;;;1.95;1.73;;;17.10;65.40;;;;;;4933519;29;20162;-83
2023/12/13 04:52:51;;;;;;;2.92;2.00;;;17.10;65.70;;;;;;4921354;29;20178;-83
2023/12/13 04:55:17;;;;;;;2.88;2.00;;;17.10;65.60;;;;;;4904431;29;20186;-83
2023/12/13 04:57:43;;;;;;;2.40;1.90;;;17.10;65.60;;;;;;4900704;29;20206;-83
2023/12/13 05:00:09;;;;;;;2.20;1.88;;;17.10;65.40;;;;;;4905548;29;20590;-84
2023/12/13 05:02:35;;;;;;;3.30;1.85;;;17.10;65.40;;;;;;4936790;29;20534;-83
2023/12/13 05:05:01;;;;;;;2.85;1.98;;;17.00;65.40;;;;;;4906290;29;20614;-82
2023/12/13 05:07:28;;;;;;;2.25;1.85;;;17.10;65.60;;;;;;4906036;29;20237;-84
2023/12/13 05:09:55;;;;;;;3.65;2.15;;;17.10;65.40;;;;;;4921774;29;20233;-83
2023/12/13 05:12:21;;;;;;;2.53;2.10;;;17.10;65.40;;;;;;4906009;29;20162;-84
2023/12/13 05:14:46;;;;;;;3.20;1.83;;;17.10;65.20;;;;;;4902676;29;20266;-84
2023/12/13 05:17:12;;;;;;;3.42;2.00;;;17.10;65.50;;;;;;4919469;29;20170;-84
2023/12/13 05:19:38;;;;;;;3.22;2.22;;;17.00;65.30;;;;;;4902593;29;20198;-84
2023/12/13 05:22:04;;;;;;;2.53;2.10;;;17.10;65.30;;;;;;4903387;29;20504;-84
2023/12/13 05:24:29;;;;;;;2.10;1.90;;;17.10;65.30;;;;;;4928343;29;20652;-83
2023/12/13 05:26:56;;;;;;;2.60;1.80;;;17.00;65.20;;;;;;4905847;29;20321;-83
2023/12/13 05:31:48;;;;;;;2.90;2.00;;;17.10;65.10;;;;;;5183787;23;20245;-84
2023/12/13 05:34:13;;;;;;;2.47;1.98;;;17.00;65.40;;;;;;4938393;29;20537;-83
2023/12/13 05:36:39;;;;;;;3.20;2.08;;;17.00;65.50;;;;;;4905584;29;20245;-83
2023/12/13 05:39:05;;;;;;;2.15;1.85;;;17.10;65.40;;;;;;4923250;29;20648;-84
2023/12/13 05:41:30;;;;;;;2.65;1.98;;;17.10;65.50;;;;;;4962951;23;20261;-83
2023/12/13 05:46:33;;;;;;;2.65;1.90;;;17.10;65.60;;;;;;5050484;23;20229;-83
2023/12/13 05:49:02;;;;;;;2.88;2.10;;;17.10;65.50;;;;;;4894153;29;20177;-84
2023/12/13 05:51:27;;;;;;;3.40;1.80;;;17.10;65.40;;;;;;4939136;29;20189;-83
2023/12/13 05:53:53;;;;;;;3.08;2.10;;;17.10;65.40;;;;;;4956340;29;20224;-83
2023/12/13 05:56:21;;;;;;;2.75;2.10;;;17.00;65.30;;;;;;4939104;29;20623;-83
2023/12/13 05:58:47;;;;;;;2.72;2.00;;;17.10;65.20;;;;;;4890118;29;20233;-83
2023/12/13 06:01:15;;;;;;;2.65;1.85;;;17.10;65.20;;;;;;4922738;29;20177;-84
2023/12/13 06:03:41;;;;;;;2.60;1.98;;;17.10;65.50;;;;;;4908252;29;20181;-83
2023/12/13 06:06:10;;;;;;;2.03;1.80;;;17.00;65.20;;;;;;4954935;29;20253;-83
2023/12/13 06:08:38;;;;;;;3.47;1.95;;;17.00;65.40;;;;;;4890610;29;20220;-83
2023/12/13 06:11:08;;;;;;;2.75;2.20;;;17.00;65.00;;;;;;4890076;29;20270;-83
2023/12/13 06:13:37;;;;;;;3.00;2.17;;;17.00;65.20;;;;;;4920761;29;20189;-86
2023/12/13 06:16:03;;;;;;;2.90;1.95;;;17.10;65.40;;;;;;4902556;29;20198;-84
2023/12/13 06:18:29;;;;;;;2.50;1.90;;;17.00;65.50;;;;;;4951045;29;20198;-82
2023/12/13 06:20:55;;;;;;;2.75;1.95;;;17.00;65.30;;;;;;4939119;29;20188;-83
2023/12/13 06:23:21;;;;;;;3.80;2.17;;;17.00;65.20;;;;;;4938643;29;20208;-83
2023/12/13 06:25:47;;;;;;;3.33;2.05;;;17.00;65.30;;;;;;4937005;29;20161;-84
2023/12/13 06:28:12;;;;;;;3.78;2.10;;;17.10;65.20;;;;;;4954936;29;20268;-83
2023/12/13 06:30:38;;;;;;;2.53;1.95;;;17.10;64.60;;;;;;4949032;23;20419;-83
2023/12/13 06:33:05;;;;;;;2.45;1.83;;;17.10;65.00;;;;;;4917843;29;20733;-84
2023/12/13 06:35:31;;;;;;;2.45;1.92;;;17.10;64.90;;;;;;4920152;29;20186;-83
2023/12/13 06:37:58;;;;;;;2.45;2.00;;;17.10;64.70;;;;;;4904051;29;20224;-83
2023/12/13 06:40:24;;;;;;;3.33;2.05;;;17.10;64.80;;;;;;4908091;29;20162;-84
2023/12/13 06:42:51;;;;;;;3.45;2.10;;;17.10;64.90;;;;;;4956153;29;20154;-83
2023/12/13 06:45:18;;;;;;;2.47;1.75;;;17.00;64.90;;;;;;4938895;29;20169;-83
2023/12/13 06:47:44;;;;;;;3.33;2.45;;;17.00;64.90;;;;;;4921410;29;20161;-83
2023/12/13 06:50:10;;;;;;;2.45;2.10;;;17.10;65.10;;;;;;4904778;29;20524;-83
2023/12/13 06:52:36;;;;;;;2.47;1.80;;;17.00;64.90;;;;;;4905019;29;20146;-84
2023/12/13 06:55:01;;;;;;;2.97;2.05;;;17.00;64.50;;;;;;4890901;29;20621;-84
2023/12/13 06:57:27;;;;;;;3.35;2.28;;;17.00;64.70;;;;;;4891291;29;20585;-83
2023/12/13 06:59:54;;;;;;;3.20;2.25;;;17.10;64.90;;;;;;4920958;29;20242;-83
2023/12/13 07:02:20;;;;;;;3.10;2.03;;;17.10;64.70;;;;;;4904130;29;20166;-83
2023/12/13 07:04:46;;;;;;;3.78;2.00;;;17.10;65.00;;;;;;4888574;29;20181;-83
2023/12/13 07:07:15;;;;;;;2.90;2.05;;;17.00;64.80;;;;;;4902684;29;20171;-82
2023/12/13 07:09:44;;;;;;;2.83;2.03;;;17.10;65.00;;;;;;4900819;29;20638;-83
2023/12/13 07:12:10;;;;;;;3.20;1.85;;;17.10;64.90;;;;;;4900477;29;20195;-83
2023/12/13 07:14:42;;;;;;;2.70;2.10;;;17.10;64.30;;;;;;4888516;29;20171;-83
2023/12/13 07:17:08;;;;;;;3.63;2.10;;;17.10;64.20;;;;;;4902634;29;20167;-82
2023/12/13 07:23:33;;;;;;;2.58;2.00;;;17.20;63.60;;;;;;4787212;29;20235;-88
2023/12/13 07:26:07;;;;;;;2.58;1.90;;;17.20;63.30;;;;;;4769960;30;20201;-86
2023/12/13 07:28:56;;;;;;;2.28;1.80;;;17.30;63.00;;;;;;4758619;30;20195;-86
2023/12/13 07:31:34;;;;;;;3.25;2.10;;;17.30;63.20;;;;;;4763465;30;20218;-88
2023/12/13 07:34:49;;;;;;;;;;;;;;;;;;;;;
2023/12/13 07:37:49;;;;;;;2.38;1.90;;;17.30;62.20;;;;;;4750904;30;20224;-88
2023/12/13 07:43:22;;;;;;;;;;;;;;;;;;;;;
2023/12/13 07:46:01;;;;;;;5.25;1.85;;;17.30;62.90;;;;;;4656586;30;20279;-88
2023/12/13 07:48:48;;;;;;;2.22;1.80;;;17.30;62.90;;;;;;4687443;30;20195;-84
2023/12/13 07:51:22;;;;;;;2.50;1.98;;;17.30;63.00;;;;;;4694077;30;20190;-87
2023/12/13 07:53:48;;;;;;;2.47;2.13;;;17.30;62.10;;;;;;4685621;30;20196;-83
2023/12/13 08:07:13;;;;;;;2.47;1.67;;;17.30;62.10;;;;;;4745380;30;20369;-84
2023/12/13 08:09:43;;;;;;;3.10;1.90;;;17.30;61.90;;;;;;4726662;30;20197;-83
2023/12/13 08:12:36;;;;;;;4.22;1.80;;;17.30;63.40;;;;;;4726155;30;20222;-84
2023/12/13 08:15:08;;;;;;;2.10;1.60;;;17.40;62.00;;;;;;4767498;30;20267;-85
2023/12/13 08:17:42;;;;;;;2.03;1.80;;;17.40;62.30;;;;;;4751512;30;20638;-85
2023/12/13 08:20:08;;;;;;;3.22;1.77;;;17.50;62.00;;;;;;4767987;30;20196;-85
2023/12/13 08:22:46;;;;;;;2.10;1.73;;;17.50;62.50;;;;;;4781741;30;20192;-85
2023/12/13 08:25:16;;;;;;;2.47;1.60;;;17.40;61.60;;;;;;4771274;30;20206;-85
2023/12/13 08:27:42;;;;;;;2.78;2.03;;;17.40;60.70;;;;;;4784761;30;20217;-85
2023/12/13 08:30:12;;;;;;;2.22;1.70;;;17.40;62.30;;;;;;4790996;30;20223;-85
2023/12/13 08:32:39;;;;;;;3.72;1.85;;;17.50;62.00;;;;;;4751999;30;20194;-85
2023/12/13 08:35:07;;;;;;;3.72;1.92;;;17.40;62.00;;;;;;4798678;29;20296;-84
2023/12/13 08:37:38;;;;;;;3.35;1.75;;;17.40;61.60;;;;;;4834294;29;20223;-84
2023/12/13 08:40:06;;;;;;;5.20;2.20;;;17.40;61.80;;;;;;4817051;29;20714;-85
2023/12/13 08:42:32;;;;;;;3.55;1.85;;;17.50;62.20;;;;;;4831707;29;20269;-83
2023/12/13 08:44:59;;;;;;;4.82;1.80;;;17.50;62.70;;;;;;4847443;29;20718;-85
2023/12/13 08:47:24;;;;;;;1.77;1.60;;;17.50;61.70;;;;;;4819930;29;20602;-84
2023/12/13 08:49:50;;;;;;;4.25;1.88;;;17.50;60.90;;;;;;4833292;29;20192;-83
2023/12/13 08:52:18;;;;;;;3.75;2.10;;;17.50;61.30;;;;;;4875956;29;20194;-85
2023/12/13 08:54:46;;;;;;;2.17;1.77;;;17.60;61.40;;;;;;4897767;29;20252;-84
2023/12/13 08:57:20;;;;;;;2.00;1.67;;;17.60;59.80;;;;;;4896526;29;20282;-85
2023/12/13 08:59:47;;;;;;;2.80;1.65;;;17.70;60.90;;;;;;4891282;29;20213;-86
2023/12/13 09:02:12;;;;;;;3.90;1.83;;;17.60;61.30;;;;;;4933144;29;20201;-83
2023/12/13 09:04:38;;;;;;;4.00;1.88;;;17.70;60.20;;;;;;4918887;29;20241;-84
2023/12/13 09:07:06;;;;;;;3.22;1.92;;;17.80;60.80;;;;;;4916459;29;20177;-83
2023/12/13 09:09:33;;;;;;;3.03;1.90;;;17.80;60.80;;;;;;4914372;29;20273;-86
2023/12/13 09:12:01;;;;;;;2.72;1.90;;;17.90;60.80;;;;;;4898403;29;20173;-84
2023/12/13 09:14:28;;;;;;;3.67;1.95;;;17.90;60.10;;;;;;4938683;29;20657;-84
2023/12/13 09:17:01;;;;;;;5.28;1.90;;;18.00;60.30;;;;;;4914058;29;20684;-83
2023/12/13 09:19:31;;;;;;;2.30;1.85;;;18.00;61.00;;;;;;4901948;29;21629;-85
2023/12/13 09:21:58;;;;;;;3.90;1.88;;;17.90;60.10;;;;;;4913194;29;20246;-83
2023/12/13 09:24:24;;;;;;;3.92;1.98;;;17.90;61.70;;;;;;4911068;29;20195;-83
2023/12/13 09:26:53;;;;;;;2.83;2.17;;;17.80;61.60;;;;;;4907197;29;20180;-83
2023/12/13 09:29:19;;;;;;;8.48;2.08;;;17.80;62.00;;;;;;4892836;29;20217;-83
2023/12/13 09:31:48;;;;;;;2.38;1.90;;;17.80;61.20;;;;;;4926484;29;20256;-84
2023/12/13 09:34:17;;;;;;;4.65;1.95;;;17.80;61.40;;;;;;4945564;29;20151;-82
2023/12/13 09:36:49;;;;;;;10.30;2.25;;;17.90;62.60;;;;;;4931298;29;20193;-87
2023/12/13 09:39:16;;;;;;;7.57;1.85;;;17.80;60.00;;;;;;4919581;29;20289;-83
2023/12/13 09:42:02;;;;;;;5.28;2.15;;;17.80;60.30;;;;;;4910234;29;20276;-87
2023/12/13 09:44:29;;;;;;;6.38;1.80;;;17.90;59.80;;;;;;4873335;29;20199;-86
2023/12/13 09:47:01;;;;;;;3.83;1.85;;;17.80;60.50;;;;;;4883795;29;20682;-84
2023/12/13 09:49:28;;;;;;;2.83;1.77;;;17.80;59.80;;;;;;4877111;29;20196;-86
2023/12/13 09:58:39;;;;;;;5.55;1.90;;;17.80;60.80;;;;;;4892439;29;20210;-86
2023/12/13 10:01:10;;;;;;;6.93;1.90;;;17.80;60.60;;;;;;4874400;29;20179;-83
2023/12/13 10:03:39;;;;;;;4.43;1.90;;;17.80;60.70;;;;;;4874324;29;20159;-83
2023/12/13 10:06:07;;;;;;;3.63;1.70;;;17.80;61.10;;;;;;4857191;29;20179;-83
2023/12/13 10:08:35;;;;;;;3.22;1.80;;;17.80;61.60;;;;;;4858637;29;20191;-86
2023/12/13 10:11:04;;;;;;;3.83;1.83;;;17.80;61.20;;;;;;4895851;29;20192;-83
2023/12/13 10:13:40;;;;;;;4.88;1.77;;;17.90;60.70;;;;;;4875305;29;20179;-84
2023/12/13 10:16:10;;;;;;;3.90;1.92;;;17.90;61.30;;;;;;4877878;29;20683;-83
2023/12/13 10:18:36;;;;;;;3.08;2.10;;;17.80;59.80;;;;;;4912347;29;20229;-83
2023/12/13 10:21:03;;;;;;;7.15;2.00;;;17.90;62.60;;;;;;4891735;29;20264;-84
2023/12/13 10:23:32;;;;;;;5.22;2.00;;;17.80;61.40;;;;;;4902280;29;20203;-84
2023/12/13 10:26:09;;;;;;;4.55;1.63;;;17.80;61.50;;;;;;4916124;29;20178;-84
2023/12/13 10:28:37;;;;;;;8.30;2.08;;;17.80;61.20;;;;;;4895235;29;20181;-85
2023/12/13 10:31:08;;;;;;;3.40;1.63;;;17.90;61.70;;;;;;4895961;29;20234;-84
2023/12/13 10:33:51;;;;;;;3.13;1.92;;;17.90;60.20;;;;;;4943936;29;20178;-86
2023/12/13 10:36:25;;;;;;;3.45;1.95;;;17.80;61.20;;;;;;4923913;29;20182;-85
2023/12/13 10:39:05;;;;;;;4.80;1.90;;;17.80;62.00;;;;;;4925322;29;20206;-84
2023/12/13 10:41:32;;;;;;;6.25;1.90;;;17.70;61.30;;;;;;4911684;29;20167;-85
2023/12/13 10:44:06;;;;;;;3.83;1.60;;;17.80;60.50;;;;;;4933981;29;20193;-84
2023/12/13 10:46:56;;;;;;;4.28;1.80;;;17.90;61.20;;;;;;4929576;29;20189;-86
2023/12/13 10:49:24;;;;;;;2.80;1.77;;;17.80;62.60;;;;;;4919766;29;20185;-85
2023/12/13 10:52:04;;;;;;;4.13;1.90;;;17.80;61.50;;;;;;4930475;29;20178;-84
2023/12/13 10:54:47;;;;;;;3.45;1.75;;;17.90;61.10;;;;;;4915657;29;20189;-85
2023/12/13 10:57:21;;;;;;;3.13;1.80;;;17.90;61.20;;;;;;4914142;29;20174;-86
2023/12/13 10:59:48;;;;;;;4.82;1.65;;;17.80;61.20;;;;;;4913865;29;20285;-83
2023/12/13 11:02:25;;;;;;;4.07;1.73;;;17.90;61.70;;;;;;4914336;29;20154;-84
2023/12/13 11:05:04;;;;;;;3.40;1.88;;;17.90;60.80;;;;;;4913472;29;20162;-84
2023/12/13 11:07:44;;;;;;;3.22;1.83;;;17.90;61.50;;;;;;4915965;29;20506;-83
2023/12/13 11:10:13;;;;;;;2.33;1.70;;;17.90;60.50;;;;;;4910811;29;20202;-84
2023/12/13 11:13:03;;;;;;;4.68;1.75;;;18.00;60.20;;;;;;4897136;29;20187;-83
2023/12/13 11:15:41;;;;;;;16.80;2.50;;;17.90;60.70;;;;;;4879950;29;20675;-84
2023/12/13 11:18:07;;;;;;;15.40;2.40;;;18.00;60.50;;;;;;4891201;29;20202;-83
2023/12/13 11:20:47;;;;;;;15.50;2.15;;;17.90;60.90;;;;;;4874353;29;20523;-84
2023/12/13 11:23:35;;;;;;;5.97;1.80;;;17.90;60.60;;;;;;4906933;29;20210;-84
2023/12/13 11:26:01;;;;;;;5.45;1.88;;;18.00;60.30;;;;;;4911825;29;20374;-84
2023/12/13 11:28:26;;;;;;;6.68;1.88;;;18.00;59.60;;;;;;4895282;29;20166;-86
2023/12/13 11:30:57;;;;;;;6.43;1.70;;;18.00;59.80;;;;;;4896426;29;20222;-85
2023/12/13 11:33:23;;;;;;;6.50;1.90;;;18.00;60.60;;;;;;4912543;29;20198;-85
2023/12/13 11:35:59;;;;;;;5.60;1.73;;;17.90;60.50;;;;;;4895031;29;20239;-84
2023/12/13 11:38:41;;;;;;;6.85;1.65;;;18.00;60.40;;;;;;4882409;29;20210;-84
2023/12/13 11:41:17;;;;;;;4.18;2.20;;;18.00;60.50;;;;;;4897187;29;20246;-85
2023/12/13 11:43:44;;;;;;;7.10;1.90;;;18.00;60.40;;;;;;4897152;29;20186;-85
2023/12/13 11:46:19;;;;;;;4.43;1.77;;;18.00;60.90;;;;;;4873600;29;20188;-85
2023/12/13 11:48:45;;;;;;;7.22;1.98;;;17.90;60.40;;;;;;4868432;29;20238;-84
2023/12/13 11:51:37;;;;;;;5.43;1.88;;;17.90;60.80;;;;;;4878427;29;20212;-84
2023/12/13 11:54:07;;;;;;;6.57;2.00;;;17.90;59.80;;;;;;4900363;29;20202;-84
2023/12/13 11:56:35;;;;;;;13.75;2.40;;;18.00;60.10;;;;;;4890381;29;20282;-85
2023/12/13 11:59:06;;;;;;;13.73;2.00;;;18.00;60.00;;;;;;4851011;29;20213;-84
2023/12/13 12:01:36;;;;;;;15.57;2.30;;;17.90;59.90;;;;;;4834541;29;20237;-84
2023/12/13 12:04:05;;;;;;;10.95;2.20;;;18.00;60.10;;;;;;4853502;29;20193;-85
2023/12/13 12:06:47;;;;;;;16.52;2.17;;;17.90;60.70;;;;;;4848128;29;20192;-86
2023/12/13 12:09:26;;;;;;;;;;;;;;;;;;;;;
2023/12/13 12:11:55;;;;;;;13.82;2.20;;;18.00;60.80;;;;;;4852192;29;20275;-87
2023/12/13 12:14:27;;;;;;;6.95;1.90;;;17.90;60.10;;;;;;4850087;29;20200;-85
2023/12/13 12:16:54;;;;;;;8.45;2.15;;;17.90;60.40;;;;;;4849431;29;20177;-87
2023/12/13 12:19:20;;;;;;;4.00;1.80;;;17.90;61.40;;;;;;4848594;29;20284;-86
2023/12/13 12:21:46;;;;;;;9.43;2.10;;;17.90;60.80;;;;;;4848358;29;20183;-85
2023/12/13 12:24:12;;;;;;;5.38;1.75;;;17.90;60.30;;;;;;4849206;29;20185;-86
2023/12/13 12:26:40;;;;;;;5.00;1.60;;;17.90;59.80;;;;;;4834910;29;20169;-86
2023/12/13 12:29:05;;;;;;;4.85;2.10;;;17.80;60.60;;;;;;4853094;29;20196;-86
2023/12/13 12:31:31;;;;;;;3.05;1.88;;;17.90;60.00;;;;;;4854199;29;20289;-84
2023/12/13 12:34:02;;;;;;;4.50;1.77;;;17.90;59.70;;;;;;4869708;29;20203;-85
2023/12/13 12:36:28;;;;;;;6.03;1.90;;;17.80;59.80;;;;;;4889869;29;20186;-84
2023/12/13 12:38:55;;;;;;;4.35;1.60;;;17.90;60.00;;;;;;4923214;29;20191;-86
2023/12/13 12:41:22;;;;;;;5.18;1.73;;;17.80;60.00;;;;;;4891720;29;20262;-86
2023/12/13 12:44:01;;;;;;;5.80;1.58;;;17.90;59.50;;;;;;4907533;29;20155;-85
2023/12/13 12:46:26;;;;;;;8.40;2.10;;;18.00;59.70;;;;;;4893918;29;20541;-85
2023/12/13 12:48:53;;;;;;;5.18;1.77;;;17.90;59.60;;;;;;4910641;29;20181;-86
2023/12/13 12:51:21;;;;;;;7.82;2.03;;;18.00;59.50;;;;;;4916945;29;20162;-87
2023/12/13 12:53:47;;;;;;;5.40;1.88;;;18.00;59.60;;;;;;4931114;29;20765;-84
2023/12/13 12:56:13;;;;;;;4.53;1.70;;;18.00;60.30;;;;;;4914011;29;20175;-85
2023/12/13 12:58:48;;;;;;;4.82;1.58;;;17.90;59.70;;;;;;4898817;29;20210;-84
2023/12/13 13:01:19;;;;;;;5.25;2.22;;;17.90;59.90;;;;;;4898502;29;20175;-87
2023/12/13 13:03:44;;;;;;;5.35;1.70;;;17.80;59.40;;;;;;4926398;29;20163;-84
2023/12/13 13:06:10;;;;;;;6.95;2.30;;;17.90;60.70;;;;;;4908368;29;20189;-82
2023/12/13 13:08:44;;;;;;;3.53;1.75;;;17.90;60.20;;;;;;4911324;29;20181;-85
2023/12/13 13:12:09;;;;;;;;;;;;;;;;;;;;;
2023/12/13 13:15:10;;;;;;;4.63;1.63;;;17.90;59.30;;;;;;4854397;29;20224;-89
2023/12/13 13:18:07;;;;;;;3.13;1.67;;;17.90;60.30;;;;;;4849266;29;20189;-85
2023/12/13 13:21:13;;;;;;;;;;;;;;;;;;;;;
2023/12/13 13:46:07;;;;;;;2.97;1.42;;;18.00;59.20;;;;;;4780820;30;20187;-89
2023/12/13 13:49:09;;;;;;;5.85;1.80;;;17.90;59.60;;;;;;4765327;30;20566;-89
2023/12/13 13:51:51;;;;;;;3.75;1.65;;;18.00;58.90;;;;;;4731573;30;20197;-90
2023/12/13 13:54:30;;;;;;;3.42;1.50;;;18.10;59.80;;;;;;4724323;30;20208;-87
2023/12/13 13:56:56;;;;;;;2.90;1.40;;;18.00;60.50;;;;;;4750261;30;20286;-88
2023/12/13 14:00:21;;;;;;;;;;;;;;;;;;;;;
2023/12/13 14:02:50;;;;;;;6.05;1.67;;;18.00;61.00;;;;;;4757876;30;20271;-86
2023/12/13 14:05:16;;;;;;;3.03;1.83;;;18.00;61.30;;;;;;4729088;30;20202;-85
2023/12/13 14:07:59;;;;;;;5.93;1.70;;;18.00;59.20;;;;;;4709459;30;20755;-86
2023/12/13 14:10:25;;;;;;;3.67;1.58;;;18.10;59.80;;;;;;4739945;30;20257;-87